createdAt,value
2018-07-19T00:04:00.596Z,19.13
2018-07-19T00:09:06.121Z,10.67
2018-07-19T00:14:10.265Z,12.73
2018-07-19T00:19:13.748Z,10.37
2018-07-19T00:24:17.497Z,7.93
2018-07-19T00:29:21.485Z,8.83
2018-07-19T00:34:25.262Z,11.23
2018-07-19T00:39:29.362Z,10.67
2018-07-19T00:45:36.059Z,27.23
2018-07-19T00:50:39.514Z,12.80
2018-07-19T00:55:43.290Z,19.17
2018-07-19T01:00:47.110Z,14.10
2018-07-19T01:05:50.676Z,18.80
2018-07-19T01:10:55.271Z,24.43
2018-07-19T01:15:58.951Z,14.93
2018-07-19T01:21:02.392Z,12.93
2018-07-19T01:26:06.740Z,14.13
2018-07-19T01:31:10.248Z,17.20
2018-07-19T01:36:13.685Z,19.23
2018-07-19T01:44:21.728Z,19.40
2018-07-19T01:49:25.405Z,27.20
2018-07-19T01:54:29.190Z,13.43
2018-07-19T01:59:33.253Z,15.60
2018-07-19T02:04:36.677Z,16.53
2018-07-19T02:09:41.250Z,14.53
2018-07-19T02:14:44.726Z,6.40
2018-07-19T02:19:48.264Z,8.97
2018-07-19T02:24:51.793Z,22.90
2018-07-19T02:29:55.583Z,22.07
2018-07-19T02:34:59.099Z,25.50
2018-07-19T02:40:02.466Z,31.07
2018-07-19T02:45:06.601Z,26.93
2018-07-19T02:50:10.248Z,30.53
2018-07-19T02:55:13.533Z,26.53
2018-07-19T03:00:17.683Z,42.00
2018-07-19T03:05:21.075Z,47.57
2018-07-19T03:10:24.325Z,35.87
2018-07-19T03:15:28.280Z,23.97
2018-07-19T03:20:31.894Z,8.43
2018-07-19T03:25:36.388Z,12.53
2018-07-19T03:30:39.660Z,18.77
2018-07-19T03:35:43.232Z,21.80
2018-07-19T03:40:46.852Z,20.17
2018-07-19T03:45:50.898Z,20.00
2018-07-19T03:50:54.551Z,33.83
2018-07-19T03:55:58.261Z,28.83
2018-07-19T04:01:01.554Z,29.70
2018-07-19T04:06:15.461Z,35.23
2018-07-19T04:11:19.573Z,22.17
2018-07-19T04:16:23.170Z,34.43
2018-07-19T04:21:27.221Z,23.23
2018-07-19T04:26:30.728Z,22.50
2018-07-19T04:31:34.681Z,25.10
2018-07-19T04:36:38.317Z,29.03
2018-07-19T04:41:41.834Z,13.23
2018-07-19T04:46:45.912Z,28.17
2018-07-19T04:51:49.910Z,23.87
2018-07-19T04:56:53.600Z,13.80
2018-07-19T05:01:57.117Z,7.20
2018-07-19T05:07:00.309Z,14.00
2018-07-19T05:12:03.551Z,29.23
2018-07-19T05:17:06.825Z,24.27
2018-07-19T05:22:10.563Z,33.17
2018-07-19T05:27:13.929Z,38.77
2018-07-19T05:32:17.518Z,44.57
2018-07-19T05:37:21.645Z,16.73
2018-07-19T05:42:25.127Z,26.00
2018-07-19T05:47:29.189Z,32.50
2018-07-19T05:52:32.403Z,30.23
2018-07-19T05:57:35.894Z,26.80
2018-07-19T06:02:39.383Z,29.97
2018-07-19T06:07:42.659Z,27.17
2018-07-19T06:12:45.917Z,35.37
2018-07-19T06:17:49.699Z,22.83
2018-07-19T06:22:52.906Z,24.27
2018-07-19T06:27:56.460Z,32.93
2018-07-19T06:32:59.743Z,28.73
2018-07-19T06:38:03.008Z,27.47
2018-07-19T06:43:06.352Z,25.47
2018-07-19T06:48:09.998Z,17.20
2018-07-19T06:53:13.388Z,19.60
2018-07-19T06:58:16.639Z,16.23
2018-07-19T07:03:20.114Z,14.73
2018-07-19T07:08:23.605Z,14.50
2018-07-19T07:13:26.865Z,14.03
2018-07-19T07:18:30.185Z,13.13
2018-07-19T07:23:33.450Z,17.37
2018-07-19T07:28:41.643Z,17.03
2018-07-19T07:33:45.237Z,19.20
2018-07-19T07:38:48.646Z,15.50
2018-07-19T07:43:52.104Z,15.90
2018-07-19T07:48:55.801Z,8.93
2018-07-19T07:54:01.921Z,8.87
2018-07-19T07:59:05.283Z,7.40
2018-07-19T08:04:08.489Z,9.60
2018-07-19T08:09:15.858Z,8.83
2018-07-19T08:14:19.356Z,8.07
2018-07-19T08:19:22.760Z,9.77
2018-07-19T08:24:26.196Z,8.00
2018-07-19T08:29:29.395Z,6.43
2018-07-19T08:34:32.591Z,5.50
2018-07-19T08:39:35.798Z,4.83
2018-07-19T08:44:39.041Z,22.63
2018-07-19T08:49:43.893Z,6.13
2018-07-19T08:54:47.544Z,6.27
2018-07-19T08:59:50.796Z,4.70
2018-07-19T09:04:54.073Z,2.90
2018-07-19T09:09:57.342Z,3.93
2018-07-19T09:15:00.573Z,3.67
2018-07-19T09:20:04.507Z,6.90
2018-07-19T09:25:07.916Z,4.03
2018-07-19T09:30:11.629Z,3.27
2018-07-19T09:35:14.990Z,4.40
2018-07-19T09:40:18.229Z,2.87
2018-07-19T09:45:21.475Z,3.47
2018-07-19T09:50:25.014Z,3.27
2018-07-19T09:55:28.248Z,5.70
2018-07-19T10:00:37.355Z,3.93
2018-07-19T10:05:40.700Z,2.53
2018-07-19T10:10:43.925Z,2.53
2018-07-19T10:15:47.142Z,4.60
2018-07-19T10:20:53.407Z,4.63
2018-07-19T10:25:57.037Z,5.83
2018-07-19T10:31:00.738Z,6.70
2018-07-19T10:36:04.037Z,2.73
2018-07-19T10:41:07.582Z,4.53
2018-07-19T10:46:10.831Z,3.17
2018-07-19T10:51:14.298Z,4.53
2018-07-19T10:56:17.660Z,3.60
2018-07-19T11:01:20.950Z,3.40
2018-07-19T11:06:24.490Z,4.27
2018-07-19T11:11:27.812Z,5.10
2018-07-19T11:16:33.647Z,4.07
2018-07-19T11:21:37.092Z,2.80
2018-07-19T11:26:41.422Z,4.73
2018-07-19T11:31:44.634Z,3.10
2018-07-19T11:36:48.167Z,5.17
2018-07-19T11:41:51.385Z,5.30
2018-07-19T11:47:00.035Z,3.93
2018-07-19T11:52:03.658Z,3.17
2018-07-19T11:57:07.810Z,4.10
2018-07-19T12:02:11.284Z,4.10
2018-07-19T12:07:14.863Z,2.30
2018-07-19T12:12:18.294Z,3.23
2018-07-19T12:17:21.598Z,3.73
2018-07-19T12:22:25.238Z,5.53
2018-07-19T12:27:28.491Z,9.90
2018-07-19T12:32:31.989Z,2.60
2018-07-19T12:37:35.270Z,3.43
2018-07-19T12:42:39.169Z,7.67
2018-07-19T12:47:42.405Z,3.53
2018-07-19T12:52:46.125Z,3.63
2018-07-19T12:57:49.392Z,2.77
2018-07-19T13:02:52.706Z,3.07
2018-07-19T13:07:58.379Z,4.20
2018-07-19T13:13:06.539Z,2.20
2018-07-19T13:18:11.528Z,2.40
2018-07-19T13:23:15.180Z,4.30
2018-07-19T13:28:18.835Z,3.50
2018-07-19T13:33:22.316Z,5.60
2018-07-19T13:38:25.615Z,3.43
2018-07-19T13:43:29.457Z,7.40
2018-07-19T13:48:32.770Z,6.93
2018-07-19T13:53:47.225Z,2.50
2018-07-19T13:58:50.558Z,5.13
2018-07-19T14:03:53.995Z,6.10
2018-07-19T14:09:05.306Z,2.60
2018-07-19T14:14:09.968Z,2.40
2018-07-19T14:19:15.129Z,4.83
2018-07-19T14:24:18.748Z,4.13
2018-07-19T14:29:22.149Z,5.53
2018-07-19T14:34:25.631Z,3.23
2018-07-19T14:39:29.219Z,1.83
2018-07-19T14:44:32.757Z,3.47
2018-07-19T14:49:36.448Z,5.17
2018-07-19T14:54:40.584Z,4.23
2018-07-19T14:59:44.062Z,4.97
2018-07-19T15:04:47.479Z,3.27
2018-07-19T15:09:56.275Z,3.27
2018-07-19T15:15:01.232Z,5.73
2018-07-19T15:20:05.031Z,1.77
2018-07-19T15:25:09.010Z,2.80
2018-07-19T15:30:12.546Z,5.70
2018-07-19T15:35:23.848Z,1.17
2018-07-19T15:40:29.482Z,6.30
2018-07-19T15:45:33.044Z,4.50
2018-07-19T15:50:36.525Z,1.50
2018-07-19T15:55:40.495Z,3.50
2018-07-19T16:00:43.994Z,7.70
2018-07-19T16:05:48.408Z,2.20
2018-07-19T16:10:52.407Z,2.60
2018-07-19T16:15:55.934Z,1.67
2018-07-19T16:21:00.604Z,1.60
2018-07-19T16:26:04.184Z,2.10
2018-07-19T16:31:07.613Z,1.90
2018-07-19T16:36:10.917Z,3.17
2018-07-19T16:41:14.536Z,2.77
2018-07-19T16:46:17.849Z,1.40
2018-07-19T16:51:21.849Z,1.70
2018-07-19T16:56:25.493Z,1.37
2018-07-19T17:01:28.796Z,4.87
2018-07-19T17:06:32.097Z,3.10
2018-07-19T17:11:36.548Z,5.10
2018-07-19T17:16:40.978Z,3.83
2018-07-19T17:21:44.439Z,2.57
2018-07-19T17:26:50.784Z,2.20
2018-07-19T17:31:54.305Z,2.63
2018-07-19T17:37:03.993Z,2.93
2018-07-19T17:42:08.234Z,2.33
2018-07-19T17:47:11.449Z,2.13
2018-07-19T17:52:14.619Z,1.40
2018-07-19T17:57:18.177Z,4.47
2018-07-19T18:02:21.470Z,2.50
2018-07-19T18:07:24.676Z,4.00
2018-07-19T18:12:27.954Z,3.67
2018-07-19T18:17:31.215Z,2.50
2018-07-19T18:22:34.490Z,9.60
2018-07-19T18:27:38.797Z,1.97
2018-07-19T18:32:46.193Z,2.30
2018-07-19T18:37:51.185Z,1.90
2018-07-19T18:42:54.428Z,1.30
2018-07-19T18:47:58.023Z,2.97
2018-07-19T18:53:01.269Z,8.67
2018-07-19T18:58:04.850Z,4.83
2018-07-19T19:03:08.112Z,3.17
2018-07-19T19:08:11.393Z,5.20
2018-07-19T19:13:15.273Z,4.93
2018-07-19T19:18:19.046Z,5.60
2018-07-19T19:23:22.422Z,3.10
2018-07-19T19:28:25.947Z,8.30
2018-07-19T19:33:29.196Z,6.83
2018-07-19T19:44:07.039Z,4.90
2018-07-19T19:49:10.396Z,2.57
2018-07-19T19:54:13.952Z,3.00
2018-07-19T19:59:17.250Z,10.60
2018-07-19T20:04:20.799Z,3.20
2018-07-19T20:09:39.018Z,11.37
2018-07-19T20:14:46.046Z,10.83
2018-07-19T20:19:50.274Z,7.77
2018-07-19T20:24:53.797Z,6.63
2018-07-19T20:29:57.894Z,6.53
2018-07-19T20:35:01.224Z,4.17
2018-07-19T20:40:04.781Z,10.50
2018-07-19T20:45:08.190Z,8.80
2018-07-19T20:50:11.517Z,19.37
2018-07-19T20:55:14.743Z,5.60
2018-07-19T21:00:20.010Z,9.43
2018-07-19T21:05:23.499Z,3.97
2018-07-19T21:10:26.820Z,6.70
2018-07-19T21:15:30.317Z,6.77
2018-07-19T21:20:33.510Z,8.17
2018-07-19T21:25:37.360Z,9.37
2018-07-19T21:30:41.498Z,3.67
2018-07-19T21:35:45.220Z,5.87
2018-07-19T21:40:48.913Z,8.47
2018-07-19T21:45:52.682Z,14.83
2018-07-19T21:50:56.009Z,5.70
2018-07-19T21:55:59.362Z,11.67
2018-07-19T22:01:08.321Z,4.60
2018-07-19T22:06:11.836Z,10.13
2018-07-19T22:11:15.270Z,4.83
2018-07-19T22:16:18.900Z,7.30
2018-07-19T22:21:22.207Z,9.57
2018-07-19T22:26:25.820Z,6.10
2018-07-19T22:31:29.584Z,7.33
2018-07-19T22:36:33.300Z,4.30
2018-07-19T22:41:37.023Z,6.73
2018-07-19T22:46:41.086Z,3.33
2018-07-19T22:51:44.581Z,7.10
2018-07-19T22:56:48.198Z,6.23
2018-07-19T23:01:52.082Z,11.83
2018-07-19T23:06:55.678Z,6.33
2018-07-19T23:11:59.441Z,6.90
2018-07-19T23:17:03.733Z,8.57
2018-07-19T23:22:07.353Z,10.90
2018-07-19T23:27:10.943Z,9.10
2018-07-19T23:32:14.265Z,5.40
2018-07-19T23:37:22.513Z,4.60
2018-07-19T23:42:32.181Z,16.27
2018-07-19T23:47:38.639Z,5.30
2018-07-19T23:52:42.654Z,5.40
2018-07-19T23:57:46.626Z,15.13
